createdAt,value
2018-02-18T00:00:10.686Z,92473.11
2018-02-18T00:00:59.782Z,92473.42
2018-02-18T00:01:48.991Z,92471.70
2018-02-18T00:02:38.073Z,92472.38
2018-02-18T00:03:27.152Z,92475.78
2018-02-18T00:04:16.243Z,92468.54
2018-02-18T00:05:05.377Z,92469.56
2018-02-18T00:05:54.743Z,92467.88
2018-02-18T00:06:43.803Z,92466.47
2018-02-18T00:07:32.874Z,92470.90
2018-02-18T00:08:21.930Z,92467.45
2018-02-18T00:09:10.992Z,92467.77
2018-02-18T00:10:00.168Z,92470.87
2018-02-18T00:10:49.310Z,92462.95
2018-02-18T00:11:38.396Z,92465.34
2018-02-18T00:12:27.486Z,92465.66
2018-02-18T00:13:16.614Z,92464.99
2018-02-18T00:14:06.009Z,92467.35
2018-02-18T00:14:58.806Z,92464.92
2018-02-18T00:15:47.875Z,92467.98
2018-02-18T00:16:36.962Z,92461.44
2018-02-18T00:17:26.030Z,92462.47
2018-02-18T00:18:15.116Z,92460.03
2018-02-18T00:19:04.184Z,92466.19
2018-02-18T00:19:53.300Z,92460.36
2018-02-18T00:20:42.406Z,92461.02
2018-02-18T00:21:31.460Z,92463.09
2018-02-18T00:22:20.543Z,92455.86
2018-02-18T00:23:09.619Z,92456.88
2018-02-18T00:23:58.679Z,92458.91
2018-02-18T00:24:47.739Z,92457.19
2018-02-18T00:25:37.863Z,92453.39
2018-02-18T00:26:26.935Z,92454.41
2018-02-18T00:27:16.070Z,92449.24
2018-02-18T00:28:05.136Z,92449.91
2018-02-18T00:28:54.253Z,92451.25
2018-02-18T00:29:43.365Z,92452.63
2018-02-18T00:30:32.608Z,92451.22
2018-02-18T00:31:21.679Z,92449.84
2018-02-18T00:32:10.760Z,92445.38
2018-02-18T00:32:59.820Z,92443.66
2018-02-18T00:33:48.882Z,92440.17
2018-02-18T00:34:38.018Z,92441.20
2018-02-18T00:35:27.089Z,92443.27
2018-02-18T00:36:16.155Z,92438.45
2018-02-18T00:37:05.231Z,92438.77
2018-02-18T00:37:54.292Z,92438.73
2018-02-18T00:38:43.562Z,92436.69
2018-02-18T00:39:32.626Z,92441.13
2018-02-18T00:40:21.732Z,92436.66
2018-02-18T00:41:11.065Z,92440.09
2018-02-18T00:42:00.133Z,92436.97
2018-02-18T00:42:49.198Z,92436.27
2018-02-18T00:43:38.256Z,92440.70
2018-02-18T00:44:27.321Z,92429.34
2018-02-18T00:45:16.400Z,92435.14
2018-02-18T00:46:05.532Z,92436.88
2018-02-18T00:46:54.630Z,92435.50
2018-02-18T00:47:43.702Z,92434.80
2018-02-18T00:48:32.757Z,92430.64
2018-02-18T00:49:21.831Z,92431.00
2018-02-18T00:50:10.915Z,92435.81
2018-02-18T00:50:59.995Z,92429.24
2018-02-18T00:51:49.137Z,92429.94
2018-02-18T00:52:38.401Z,92434.02
2018-02-18T00:53:27.474Z,92429.55
2018-02-18T00:54:16.590Z,92426.78
2018-02-18T00:55:05.651Z,92427.80
2018-02-18T00:55:54.733Z,92430.51
2018-02-18T00:56:44.127Z,92424.32
2018-02-18T00:57:33.574Z,92435.99
2018-02-18T00:58:22.651Z,92428.09
2018-02-18T00:59:11.725Z,92420.17
2018-02-18T01:00:00.777Z,92423.27
2018-02-18T01:00:49.882Z,92420.84
2018-02-18T01:01:38.974Z,92427.70
2018-02-18T01:02:28.043Z,92422.18
2018-02-18T01:03:17.761Z,92428.37
2018-02-18T01:04:06.818Z,92421.44
2018-02-18T01:04:55.898Z,92422.46
2018-02-18T01:05:44.952Z,92418.00
2018-02-18T01:06:34.033Z,92422.78
2018-02-18T01:07:23.104Z,92419.33
2018-02-18T01:08:12.182Z,92421.38
2018-02-18T01:09:01.297Z,92418.63
2018-02-18T01:09:50.391Z,92415.16
2018-02-18T01:10:39.579Z,92419.61
2018-02-18T01:11:30.790Z,92409.63
2018-02-18T01:12:19.866Z,92408.27
2018-02-18T01:13:08.966Z,92410.66
2018-02-18T01:13:58.474Z,92407.91
2018-02-18T01:14:47.621Z,92405.17
2018-02-18T01:15:38.474Z,92409.21
2018-02-18T01:16:27.753Z,92410.58
2018-02-18T01:17:16.987Z,92404.75
2018-02-18T01:18:09.795Z,92406.44
2018-02-18T01:18:59.901Z,92401.30
2018-02-18T01:19:48.957Z,92398.84
2018-02-18T01:20:38.025Z,92403.30
2018-02-18T01:21:27.099Z,92405.70
2018-02-18T01:22:16.193Z,92400.18
2018-02-18T01:23:05.284Z,92398.77
2018-02-18T01:23:54.391Z,92403.23
2018-02-18T01:24:43.467Z,92393.96
2018-02-18T01:25:32.528Z,92396.70
2018-02-18T01:26:22.067Z,92393.26
2018-02-18T01:27:12.170Z,92389.46
2018-02-18T01:28:01.234Z,92391.50
2018-02-18T01:28:50.373Z,92391.11
2018-02-18T01:29:39.473Z,92393.19
2018-02-18T01:30:28.540Z,92387.35
2018-02-18T01:31:17.602Z,92388.69
2018-02-18T01:32:06.662Z,92391.39
2018-02-18T01:32:55.893Z,92390.02
2018-02-18T01:33:45.150Z,92387.95
2018-02-18T01:34:34.245Z,92389.33
2018-02-18T01:35:28.058Z,92387.56
2018-02-18T01:36:17.266Z,92386.55
2018-02-18T01:37:06.355Z,92383.77
2018-02-18T01:37:55.442Z,92391.30
2018-02-18T01:38:44.780Z,92387.53
2018-02-18T01:39:34.147Z,92383.06
2018-02-18T01:40:23.325Z,92387.50
2018-02-18T01:41:12.410Z,92386.80
2018-02-18T01:42:01.473Z,92387.81
2018-02-18T01:42:50.549Z,92383.70
2018-02-18T01:43:39.677Z,92379.91
2018-02-18T01:44:28.828Z,92382.30
2018-02-18T01:45:17.894Z,92381.95
2018-02-18T01:46:06.971Z,92385.35
2018-02-18T01:46:56.034Z,92380.86
2018-02-18T01:47:45.947Z,92379.84
2018-02-18T01:48:35.051Z,92381.56
2018-02-18T01:49:24.129Z,92381.52
2018-02-18T01:50:26.098Z,92377.38
2018-02-18T01:51:15.213Z,92378.75
2018-02-18T01:52:04.289Z,92378.40
2018-02-18T01:52:53.811Z,92382.16
2018-02-18T01:53:42.860Z,92381.10
2018-02-18T01:54:31.987Z,92379.38
2018-02-18T01:55:21.079Z,92380.72
2018-02-18T01:56:10.518Z,92378.33
2018-02-18T01:56:59.923Z,92384.80
2018-02-18T01:57:49.934Z,92383.77
2018-02-18T01:58:39.626Z,92384.09
2018-02-18T01:59:28.805Z,92382.02
2018-02-18T02:00:17.868Z,92383.39
2018-02-18T02:01:07.003Z,92386.80
2018-02-18T02:01:56.166Z,92385.39
2018-02-18T02:02:45.316Z,92383.00
2018-02-18T02:03:34.428Z,92386.76
2018-02-18T02:04:23.568Z,92382.61
2018-02-18T02:05:12.661Z,92384.69
2018-02-18T02:06:01.854Z,92384.66
2018-02-18T02:06:50.986Z,92379.84
2018-02-18T02:07:41.656Z,92379.17
2018-02-18T02:08:30.738Z,92379.84
2018-02-18T02:09:19.895Z,92382.52
2018-02-18T02:10:08.956Z,92389.69
2018-02-18T02:10:58.398Z,92384.52
2018-02-18T02:11:48.287Z,92378.33
2018-02-18T02:12:37.352Z,92373.52
2018-02-18T02:13:26.473Z,92375.91
2018-02-18T02:14:15.532Z,92372.47
2018-02-18T02:15:04.606Z,92374.86
2018-02-18T02:15:53.740Z,92376.22
2018-02-18T02:16:42.796Z,92371.77
2018-02-18T02:17:32.254Z,92369.34
2018-02-18T02:18:21.323Z,92368.98
2018-02-18T02:19:10.419Z,92373.45
2018-02-18T02:19:59.532Z,92368.98
2018-02-18T02:20:48.769Z,92366.55
2018-02-18T02:21:37.923Z,92368.28
2018-02-18T02:22:26.998Z,92366.17
2018-02-18T02:23:16.097Z,92367.89
2018-02-18T02:24:05.183Z,92367.50
2018-02-18T02:24:54.268Z,92369.23
2018-02-18T02:25:43.382Z,92367.16
2018-02-18T02:26:32.500Z,92366.45
2018-02-18T02:27:21.579Z,92365.05
2018-02-18T02:28:10.632Z,92366.41
2018-02-18T02:28:59.697Z,92368.84
2018-02-18T02:29:48.762Z,92366.06
2018-02-18T02:30:37.977Z,92371.19
2018-02-18T02:31:27.040Z,92361.18
2018-02-18T02:32:16.260Z,92363.25
2018-02-18T02:33:05.323Z,92363.92
2018-02-18T02:33:54.413Z,92360.12
2018-02-18T02:34:43.720Z,92363.88
2018-02-18T02:35:32.777Z,92363.84
2018-02-18T02:36:21.884Z,92368.31
2018-02-18T02:37:10.949Z,92362.48
2018-02-18T02:38:00.375Z,92361.11
2018-02-18T02:38:49.444Z,92361.42
2018-02-18T02:39:38.528Z,92360.38
2018-02-18T02:40:27.581Z,92362.72
2018-02-18T02:41:16.649Z,92361.70
2018-02-18T02:42:05.750Z,92365.11
2018-02-18T02:42:54.956Z,92364.73
2018-02-18T02:43:44.014Z,92360.27
2018-02-18T02:44:33.088Z,92358.19
2018-02-18T02:45:22.156Z,92360.58
2018-02-18T02:46:11.230Z,92365.00
2018-02-18T02:47:00.301Z,92356.78
2018-02-18T02:47:49.596Z,92359.52
2018-02-18T02:48:38.665Z,92356.75
2018-02-18T02:49:27.783Z,92365.32
2018-02-18T02:50:17.054Z,92365.98
2018-02-18T02:51:06.132Z,92359.80
2018-02-18T02:51:55.220Z,92363.59
2018-02-18T02:52:44.312Z,92361.17
2018-02-18T02:53:33.409Z,92363.91
2018-02-18T02:54:22.474Z,92366.97
2018-02-18T02:55:11.538Z,92362.83
2018-02-18T02:56:00.611Z,92367.25
2018-02-18T02:56:49.674Z,92371.70
2018-02-18T02:57:38.770Z,92363.14
2018-02-18T02:58:27.836Z,92361.73
2018-02-18T02:59:17.108Z,92368.94
2018-02-18T03:00:06.163Z,92357.27
2018-02-18T03:00:55.223Z,92364.47
2018-02-18T03:01:44.367Z,92360.68
2018-02-18T03:02:33.452Z,92365.11
2018-02-18T03:03:22.557Z,92362.05
2018-02-18T03:04:11.689Z,92363.03
2018-02-18T03:05:00.747Z,92367.49
2018-02-18T03:05:49.810Z,92369.17
2018-02-18T03:06:38.953Z,92372.27
2018-02-18T03:07:28.293Z,92368.48
2018-02-18T03:08:17.375Z,92363.31
2018-02-18T03:09:06.645Z,92366.05
2018-02-18T03:09:55.929Z,92366.41
2018-02-18T03:10:44.997Z,92361.27
2018-02-18T03:11:34.356Z,92366.41
2018-02-18T03:12:23.669Z,92364.36
2018-02-18T03:13:12.731Z,92356.14
2018-02-18T03:14:01.785Z,92363.00
2018-02-18T03:14:51.176Z,92361.63
2018-02-18T03:15:40.242Z,92366.44
2018-02-18T03:16:29.343Z,92365.42
2018-02-18T03:17:18.404Z,92359.94
2018-02-18T03:18:07.481Z,92363.03
2018-02-18T03:18:56.554Z,92358.25
2018-02-18T03:19:45.622Z,92365.14
2018-02-18T03:20:34.733Z,92362.40
2018-02-18T03:21:23.796Z,92360.68
2018-02-18T03:22:12.872Z,92365.17
2018-02-18T03:23:01.937Z,92360.05
2018-02-18T03:23:51.022Z,92356.64
2018-02-18T03:24:40.078Z,92354.61
2018-02-18T03:25:29.167Z,92361.84
2018-02-18T03:26:18.570Z,92351.91
2018-02-18T03:27:07.628Z,92354.68
2018-02-18T03:27:56.970Z,92359.48
2018-02-18T03:28:46.041Z,92354.36
2018-02-18T03:29:35.121Z,92354.71
2018-02-18T03:30:24.634Z,92356.78
2018-02-18T03:31:13.714Z,92361.95
2018-02-18T03:32:03.007Z,92355.09
2018-02-18T03:32:52.066Z,92358.23
2018-02-18T03:33:41.133Z,92360.30
2018-02-18T03:34:30.216Z,92355.17
2018-02-18T03:35:19.309Z,92353.09
2018-02-18T03:36:08.414Z,92356.23
2018-02-18T03:36:57.483Z,92357.28
2018-02-18T03:37:46.549Z,92353.20
2018-02-18T03:38:35.641Z,92360.05
2018-02-18T03:39:24.697Z,92353.59
2018-02-18T03:40:13.758Z,92356.33
2018-02-18T03:41:02.808Z,92356.05
2018-02-18T03:41:51.895Z,92355.03
2018-02-18T03:42:41.097Z,92358.13
2018-02-18T03:43:30.166Z,92355.73
2018-02-18T03:44:19.227Z,92354.41
2018-02-18T03:45:08.303Z,92355.10
2018-02-18T03:45:57.399Z,92361.33
2018-02-18T03:46:46.468Z,92358.27
2018-02-18T03:47:35.795Z,92358.97
2018-02-18T03:48:24.856Z,92361.70
2018-02-18T03:49:13.909Z,92354.19
2018-02-18T03:50:02.977Z,92360.38
2018-02-18T03:50:52.043Z,92362.80
2018-02-18T03:51:41.167Z,92355.95
2018-02-18T03:52:30.228Z,92358.38
2018-02-18T03:53:19.288Z,92355.64
2018-02-18T03:54:08.358Z,92358.73
2018-02-18T03:54:57.492Z,92361.86
2018-02-18T03:55:46.586Z,92358.80
2018-02-18T03:56:35.665Z,92362.59
2018-02-18T03:57:24.755Z,92358.17
2018-02-18T03:58:13.813Z,92359.53
2018-02-18T03:59:02.882Z,92368.17
2018-02-18T03:59:51.971Z,92361.67
2018-02-18T04:00:41.323Z,92362.02
2018-02-18T04:01:30.393Z,92359.32
2018-02-18T04:02:19.482Z,92360.02
2018-02-18T04:03:08.576Z,92359.00
2018-02-18T04:03:57.647Z,92362.45
2018-02-18T04:04:46.710Z,92356.30
2018-02-18T04:05:35.753Z,92359.73
2018-02-18T04:06:25.525Z,92353.94
2018-02-18T04:07:14.579Z,92357.03
2018-02-18T04:08:03.648Z,92353.98
2018-02-18T04:08:52.724Z,92353.34
2018-02-18T04:09:42.126Z,92352.00
2018-02-18T04:10:31.437Z,92352.33
2018-02-18T04:11:20.488Z,92353.03
2018-02-18T04:12:09.595Z,92350.98
2018-02-18T04:12:58.715Z,92355.45
2018-02-18T04:13:47.778Z,92351.02
2018-02-18T04:14:36.870Z,92356.19
2018-02-18T04:15:25.945Z,92347.97
2018-02-18T04:16:15.000Z,92351.05
2018-02-18T04:17:04.063Z,92346.59
2018-02-18T04:17:53.150Z,92344.94
2018-02-18T04:18:42.311Z,92347.36
2018-02-18T04:19:31.366Z,92347.36
2018-02-18T04:20:20.520Z,92347.75
2018-02-18T04:21:09.648Z,92343.64
2018-02-18T04:21:58.683Z,92345.05
2018-02-18T04:22:47.746Z,92344.38
2018-02-18T04:23:36.814Z,92343.36
2018-02-18T04:24:25.875Z,92347.50
2018-02-18T04:25:14.946Z,92344.44
2018-02-18T04:26:04.575Z,92342.75
2018-02-18T04:26:53.634Z,92343.77
2018-02-18T04:27:42.744Z,92342.44
2018-02-18T04:28:32.181Z,92342.44
2018-02-18T04:29:21.249Z,92337.30
2018-02-18T04:30:10.358Z,92340.08
2018-02-18T04:30:59.416Z,92339.09
2018-02-18T04:31:48.471Z,92343.91
2018-02-18T04:32:37.625Z,92341.52
2018-02-18T04:33:26.688Z,92339.48
2018-02-18T04:34:15.762Z,92342.61
2018-02-18T04:35:04.866Z,92343.31
2018-02-18T04:35:53.912Z,92337.16
2018-02-18T04:36:43.003Z,92342.99
2018-02-18T04:37:32.065Z,92337.86
2018-02-18T04:38:21.288Z,92340.98
2018-02-18T04:39:10.354Z,92339.27
2018-02-18T04:39:59.404Z,92344.11
2018-02-18T04:40:48.472Z,92342.74
2018-02-18T04:41:37.535Z,92339.33
2018-02-18T04:42:26.612Z,92338.34
2018-02-18T04:43:15.666Z,92333.88
2018-02-18T04:44:04.751Z,92334.27
2018-02-18T04:44:53.810Z,92334.65
2018-02-18T04:45:42.916Z,92329.16
2018-02-18T04:46:32.015Z,92330.53
2018-02-18T04:47:21.093Z,92323.36
2018-02-18T04:48:10.190Z,92324.06
2018-02-18T04:48:59.250Z,92328.88
2018-02-18T04:49:48.356Z,92331.31
2018-02-18T04:50:37.428Z,92328.56
2018-02-18T04:51:26.476Z,92330.28
2018-02-18T04:52:15.550Z,92326.52
2018-02-18T04:53:04.618Z,92324.48
2018-02-18T04:53:53.685Z,92325.50
2018-02-18T04:54:42.747Z,92321.74
2018-02-18T04:55:31.977Z,92324.84
2018-02-18T04:56:21.036Z,92316.95
2018-02-18T04:57:10.105Z,92325.89
2018-02-18T04:57:59.155Z,92320.75
2018-02-18T04:58:48.214Z,92319.73
2018-02-18T04:59:37.294Z,92320.09
2018-02-18T05:00:26.373Z,92314.64
2018-02-18T05:01:15.739Z,92316.01
2018-02-18T05:02:04.826Z,92313.61
2018-02-18T05:02:53.885Z,92315.69
2018-02-18T05:03:42.986Z,92313.65
2018-02-18T05:04:32.053Z,92317.44
2018-02-18T05:05:21.117Z,92320.19
2018-02-18T05:06:10.181Z,92314.38
2018-02-18T05:06:59.579Z,92316.10
2018-02-18T05:07:48.654Z,92313.36
2018-02-18T05:08:37.741Z,92315.08
2018-02-18T05:09:26.852Z,92308.58
2018-02-18T05:10:15.941Z,92316.14
2018-02-18T05:11:05.273Z,92305.52
2018-02-18T05:11:54.329Z,92316.84
2018-02-18T05:12:43.410Z,92315.81
2018-02-18T05:13:32.490Z,92316.52
2018-02-18T05:14:21.577Z,92305.20
2018-02-18T05:15:10.632Z,92306.92
2018-02-18T05:15:59.702Z,92315.84
2018-02-18T05:16:48.805Z,92313.45
2018-02-18T05:17:37.885Z,92311.42
2018-02-18T05:18:26.953Z,92314.86
2018-02-18T05:19:16.024Z,92313.49
2018-02-18T05:20:05.098Z,92315.56
2018-02-18T05:20:54.320Z,92320.03
2018-02-18T05:21:43.391Z,92321.05
2018-02-18T05:22:32.663Z,92322.45
2018-02-18T05:23:21.737Z,92322.10
2018-02-18T05:24:10.878Z,92317.31
2018-02-18T05:24:59.945Z,92315.63
2018-02-18T05:25:49.015Z,92324.17
2018-02-18T05:26:38.153Z,92315.98
2018-02-18T05:27:27.226Z,92315.98
2018-02-18T05:28:16.299Z,92310.84
2018-02-18T05:29:05.355Z,92309.83
2018-02-18T05:29:56.243Z,92312.92
2018-02-18T05:30:45.302Z,92313.30
2018-02-18T05:31:34.388Z,92312.95
2018-02-18T05:32:23.503Z,92311.61
2018-02-18T05:33:12.553Z,92312.28
2018-02-18T05:34:01.632Z,92308.88
2018-02-18T05:34:50.691Z,92315.72
2018-02-18T05:35:39.761Z,92308.52
2018-02-18T05:36:28.828Z,92309.58
2018-02-18T05:37:17.910Z,92312.67
2018-02-18T05:38:07.014Z,92312.70
2018-02-18T05:38:56.097Z,92311.68
2018-02-18T05:39:45.162Z,92308.27
2018-02-18T05:40:34.219Z,92317.87
2018-02-18T05:41:23.296Z,92316.18
2018-02-18T05:42:12.361Z,92317.91
2018-02-18T05:43:01.423Z,92315.16
2018-02-18T05:43:50.786Z,92315.83
2018-02-18T05:44:40.558Z,92317.20
2018-02-18T05:45:29.639Z,92315.52
2018-02-18T05:46:18.708Z,92322.72
2018-02-18T05:47:07.787Z,92318.28
2018-02-18T05:47:56.864Z,92322.08
2018-02-18T05:48:45.927Z,92321.06
2018-02-18T05:49:35.006Z,92313.84
2018-02-18T05:50:24.150Z,92313.84
2018-02-18T05:51:13.206Z,92311.81
2018-02-18T05:52:02.281Z,92312.86
2018-02-18T05:52:51.347Z,92308.75
2018-02-18T05:53:40.952Z,92306.36
2018-02-18T05:54:30.065Z,92317.01
2018-02-18T05:55:19.104Z,92312.89
2018-02-18T05:56:08.188Z,92315.98
2018-02-18T05:56:57.255Z,92317.71
2018-02-18T05:57:46.357Z,92315.67
2018-02-18T05:58:35.459Z,92310.19
2018-02-18T05:59:24.533Z,92317.04
2018-02-18T06:00:14.141Z,92316.72
2018-02-18T06:01:03.192Z,92319.81
2018-02-18T06:01:52.769Z,92320.17
2018-02-18T06:02:41.830Z,92322.23
2018-02-18T06:03:30.892Z,92316.75
2018-02-18T06:04:19.942Z,92312.64
2018-02-18T06:05:09.324Z,92311.62
2018-02-18T06:05:58.397Z,92309.92
2018-02-18T06:06:47.470Z,92312.70
2018-02-18T06:07:36.608Z,92313.38
2018-02-18T06:08:25.675Z,92308.94
2018-02-18T06:09:14.728Z,92310.66
2018-02-18T06:10:03.802Z,92309.29
2018-02-18T06:10:52.880Z,92312.38
2018-02-18T06:11:45.615Z,92314.80
2018-02-18T06:12:34.875Z,92307.95
2018-02-18T06:13:26.570Z,92310.02
2018-02-18T06:14:15.651Z,92307.98
2018-02-18T06:15:04.726Z,92310.02
2018-02-18T06:15:53.787Z,92311.78
2018-02-18T06:16:42.866Z,92317.61
2018-02-18T06:17:31.948Z,92313.50
2018-02-18T06:18:21.022Z,92317.27
2018-02-18T06:19:12.566Z,92316.94
2018-02-18T06:20:01.696Z,92312.51
2018-02-18T06:20:50.844Z,92311.14
2018-02-18T06:21:39.904Z,92317.67
2018-02-18T06:22:28.991Z,92312.54
2018-02-18T06:23:18.071Z,92310.50
2018-02-18T06:24:07.138Z,92309.13
2018-02-18T06:24:56.252Z,92305.36
2018-02-18T06:25:45.368Z,92312.22
2018-02-18T06:26:34.448Z,92313.62
2018-02-18T06:27:23.526Z,92313.30
2018-02-18T06:28:12.578Z,92310.21
2018-02-18T06:29:02.742Z,92316.38
2018-02-18T06:29:53.395Z,92313.66
2018-02-18T06:30:42.643Z,92315.03
2018-02-18T06:31:31.699Z,92314.67
2018-02-18T06:32:20.771Z,92314.36
2018-02-18T06:33:09.838Z,92311.97
2018-02-18T06:33:58.909Z,92314.39
2018-02-18T06:34:47.990Z,92313.37
2018-02-18T06:35:37.062Z,92312.34
2018-02-18T06:36:30.806Z,92313.72
2018-02-18T06:37:19.879Z,92318.53
2018-02-18T06:38:08.947Z,92311.67
2018-02-18T06:38:58.245Z,92315.12
2018-02-18T06:39:47.387Z,92320.61
2018-02-18T06:40:36.478Z,92316.50
2018-02-18T06:41:25.541Z,92316.84
2018-02-18T06:42:14.675Z,92314.48
2018-02-18T06:43:03.750Z,92318.95
2018-02-18T06:43:52.816Z,92316.23
2018-02-18T06:44:42.849Z,92310.75
2018-02-18T06:45:31.925Z,92302.83
2018-02-18T06:46:21.006Z,92306.28
2018-02-18T06:47:10.263Z,92303.53
2018-02-18T06:48:00.038Z,92300.83
2018-02-18T06:48:49.155Z,92301.17
2018-02-18T06:49:38.247Z,92299.16
2018-02-18T06:50:27.328Z,92298.14
2018-02-18T06:51:16.412Z,92296.77
2018-02-18T06:52:05.501Z,92300.22
2018-02-18T06:52:55.020Z,92303.66
2018-02-18T06:53:44.421Z,92296.13
2018-02-18T06:54:33.494Z,92296.83
2018-02-18T06:55:22.823Z,92307.13
2018-02-18T06:56:11.895Z,92301.62
2018-02-18T06:57:00.967Z,92301.64
2018-02-18T06:57:50.098Z,92306.47
2018-02-18T06:58:39.220Z,92303.05
2018-02-18T06:59:28.287Z,92308.89
2018-02-18T07:00:17.372Z,92308.56
2018-02-18T07:01:06.726Z,92305.13
2018-02-18T07:01:56.742Z,92303.75
2018-02-18T07:02:46.027Z,92310.29
2018-02-18T07:03:40.049Z,92308.92
2018-02-18T07:04:29.682Z,92305.89
2018-02-18T07:05:18.808Z,92300.39
2018-02-18T07:06:07.931Z,92300.39
2018-02-18T07:06:57.615Z,92300.43
2018-02-18T07:07:47.702Z,92299.09
2018-02-18T07:08:39.953Z,92305.95
2018-02-18T07:09:34.854Z,92305.63
2018-02-18T07:10:28.030Z,92302.56
2018-02-18T07:11:18.479Z,92305.66
2018-02-18T07:12:08.532Z,92299.50
2018-02-18T07:12:57.584Z,92301.92
2018-02-18T07:13:51.401Z,92300.58
2018-02-18T07:14:41.175Z,92304.70
2018-02-18T07:15:31.136Z,92298.19
2018-02-18T07:16:20.296Z,92304.05
2018-02-18T07:17:10.793Z,92300.64
2018-02-18T07:18:00.567Z,92298.59
2018-02-18T07:18:49.632Z,92293.46
2018-02-18T07:19:38.708Z,92296.55
2018-02-18T07:20:28.428Z,92299.30
2018-02-18T07:21:19.330Z,92296.91
2018-02-18T07:22:09.693Z,92303.80
2018-02-18T07:22:59.528Z,92298.62
2018-02-18T07:23:49.241Z,92300.00
2018-02-18T07:24:38.416Z,92295.91
2018-02-18T07:25:27.920Z,92297.28
2018-02-18T07:26:18.545Z,92291.12
2018-02-18T07:27:07.968Z,92292.88
2018-02-18T07:27:57.212Z,92294.95
2018-02-18T07:28:46.276Z,92293.93
2018-02-18T07:29:35.696Z,92302.16
2018-02-18T07:30:24.755Z,92294.63
2018-02-18T07:31:13.902Z,92302.16
2018-02-18T07:32:03.165Z,92304.23
2018-02-18T07:32:53.640Z,92298.05
2018-02-18T07:33:44.051Z,92298.05
2018-02-18T07:34:34.049Z,92297.73
2018-02-18T07:35:24.188Z,92298.08
2018-02-18T07:36:13.319Z,92300.83
2018-02-18T07:37:02.429Z,92296.73
2018-02-18T07:37:52.230Z,92296.42
2018-02-18T07:38:41.698Z,92294.72
2018-02-18T07:39:30.817Z,92294.38
2018-02-18T07:40:20.196Z,92294.40
2018-02-18T07:41:09.952Z,92289.96
2018-02-18T07:41:59.393Z,92288.59
2018-02-18T07:42:50.209Z,92287.25
2018-02-18T07:43:40.001Z,92292.39
2018-02-18T07:44:29.057Z,92292.77
2018-02-18T07:45:18.614Z,92291.74
2018-02-18T07:46:08.224Z,92290.05
2018-02-18T07:46:57.962Z,92291.08
2018-02-18T07:47:47.344Z,92287.63
2018-02-18T07:48:37.026Z,92292.80
2018-02-18T07:49:26.331Z,92284.94
2018-02-18T07:50:15.432Z,92290.08
2018-02-18T07:51:05.455Z,92284.62
2018-02-18T07:51:55.904Z,92285.97
2018-02-18T07:52:45.010Z,92284.27
2018-02-18T07:53:34.060Z,92279.16
2018-02-18T07:54:24.180Z,92280.89
2018-02-18T07:55:13.292Z,92278.14
2018-02-18T07:56:02.348Z,92276.45
2018-02-18T07:56:51.409Z,92279.19
2018-02-18T07:57:40.497Z,92275.42
2018-02-18T07:58:29.892Z,92273.73
2018-02-18T07:59:20.097Z,92271.69
2018-02-18T08:00:09.980Z,92271.34
2018-02-18T08:00:59.481Z,92265.88
2018-02-18T08:01:48.586Z,92272.06
2018-02-18T08:02:38.245Z,92267.27
2018-02-18T08:03:27.324Z,92260.38
2018-02-18T08:04:16.835Z,92270.69
2018-02-18T08:05:06.894Z,92264.15
2018-02-18T08:05:55.978Z,92263.16
2018-02-18T08:06:45.852Z,92261.11
2018-02-18T08:07:35.491Z,92264.53
2018-02-18T08:08:25.472Z,92261.81
2018-02-18T08:09:15.474Z,92257.70
2018-02-18T08:10:05.458Z,92260.47
2018-02-18T08:10:54.803Z,92260.50
2018-02-18T08:11:43.942Z,92261.87
2018-02-18T08:12:33.219Z,92257.41
2018-02-18T08:13:23.238Z,92255.67
2018-02-18T08:14:13.206Z,92255.33
2018-02-18T08:15:02.995Z,92257.37
2018-02-18T08:15:52.373Z,92258.42
2018-02-18T08:16:41.882Z,92252.93
2018-02-18T08:17:31.436Z,92253.63
2018-02-18T08:18:20.720Z,92260.50
2018-02-18T08:19:10.335Z,92257.05
2018-02-18T08:19:59.575Z,92257.41
2018-02-18T08:20:48.644Z,92253.66
2018-02-18T08:21:37.722Z,92256.41
2018-02-18T08:22:27.787Z,92254.36
2018-02-18T08:23:19.200Z,92258.86
2018-02-18T08:24:09.126Z,92256.47
2018-02-18T08:24:58.210Z,92256.11
2018-02-18T08:25:48.597Z,92255.80
2018-02-18T08:26:37.734Z,92248.92
2018-02-18T08:27:27.858Z,92252.02
2018-02-18T08:28:17.020Z,92252.72
2018-02-18T08:29:07.117Z,92247.58
2018-02-18T08:29:56.437Z,92248.98
2018-02-18T08:30:46.853Z,92251.73
2018-02-18T08:31:36.706Z,92250.33
2018-02-18T08:32:25.867Z,92243.44
2018-02-18T08:33:15.344Z,92247.23
2018-02-18T08:34:04.416Z,92246.18
2018-02-18T08:34:53.495Z,92241.77
2018-02-18T08:35:42.568Z,92239.75
2018-02-18T08:36:31.733Z,92241.83
2018-02-18T08:37:20.821Z,92238.76
2018-02-18T08:38:09.897Z,92236.04
2018-02-18T08:38:59.132Z,92231.92
2018-02-18T08:39:48.198Z,92237.09
2018-02-18T08:40:37.279Z,92231.63
2018-02-18T08:41:26.575Z,92230.95
2018-02-18T08:42:15.665Z,92233.03
2018-02-18T08:43:04.747Z,92232.68
2018-02-18T08:43:53.808Z,92239.54
2018-02-18T08:44:43.324Z,92237.47
2018-02-18T08:45:32.391Z,92240.91
2018-02-18T08:46:21.467Z,92235.77
2018-02-18T08:47:10.531Z,92240.24
2018-02-18T08:47:59.992Z,92231.98
2018-02-18T08:48:49.069Z,92233.70
2018-02-18T08:49:38.194Z,92236.09
2018-02-18T08:50:27.601Z,92232.33
2018-02-18T08:51:16.789Z,92239.89
2018-02-18T08:52:06.072Z,92239.54
2018-02-18T08:52:55.151Z,92237.14
2018-02-18T08:53:44.276Z,92234.08
2018-02-18T08:54:33.368Z,92234.40
2018-02-18T08:55:22.456Z,92240.24
2018-02-18T08:56:11.561Z,92236.83
2018-02-18T08:57:00.878Z,92236.15
2018-02-18T08:57:49.977Z,92234.43
2018-02-18T08:58:39.372Z,92231.01
2018-02-18T08:59:28.514Z,92234.81
2018-02-18T09:00:17.597Z,92236.53
2018-02-18T09:01:06.847Z,92239.59
2018-02-18T09:01:56.373Z,92240.65
2018-02-18T09:02:45.457Z,92236.53
2018-02-18T09:03:34.606Z,92239.27
2018-02-18T09:04:23.759Z,92233.78
2018-02-18T09:05:12.837Z,92236.53
2018-02-18T09:06:01.932Z,92237.94
2018-02-18T09:06:51.032Z,92233.46
2018-02-18T09:07:40.216Z,92227.65
2018-02-18T09:08:29.325Z,92230.05
2018-02-18T09:09:18.488Z,92233.14
2018-02-18T09:10:07.627Z,92233.84
2018-02-18T09:10:56.719Z,92232.14
2018-02-18T09:11:45.854Z,92230.77
2018-02-18T09:12:34.957Z,92223.91
2018-02-18T09:13:24.286Z,92228.05
2018-02-18T09:14:13.375Z,92227.03
2018-02-18T09:15:02.508Z,92225.33
2018-02-18T09:15:51.901Z,92221.91
2018-02-18T09:16:41.079Z,92222.96
2018-02-18T09:17:30.443Z,92223.28
2018-02-18T09:18:19.521Z,92216.77
2018-02-18T09:19:08.670Z,92223.28
2018-02-18T09:19:58.209Z,92217.44
2018-02-18T09:20:47.761Z,92222.27
2018-02-18T09:21:36.844Z,92221.56
2018-02-18T09:22:25.929Z,92216.77
2018-02-18T09:23:15.008Z,92221.24
2018-02-18T09:24:04.076Z,92224.36
2018-02-18T09:24:53.237Z,92220.92
2018-02-18T09:25:42.324Z,92217.52
2018-02-18T09:26:31.482Z,92218.90
2018-02-18T09:27:20.599Z,92217.88
2018-02-18T09:28:09.793Z,92219.28
2018-02-18T09:28:58.889Z,92222.02
2018-02-18T09:29:48.228Z,92217.55
2018-02-18T09:30:37.351Z,92220.30
2018-02-18T09:31:26.591Z,92208.29
2018-02-18T09:32:15.693Z,92214.13
2018-02-18T09:33:04.760Z,92216.55
2018-02-18T09:33:53.821Z,92214.16
2018-02-18T09:34:42.912Z,92220.33
2018-02-18T09:35:32.243Z,92210.72
2018-02-18T09:36:21.749Z,92214.13
2018-02-18T09:37:12.309Z,92212.76
2018-02-18T09:38:01.467Z,92214.80
2018-02-18T09:38:50.600Z,92217.58